Time;durP1;ratioP1;P1;durP2;ratioP2;P2;SDS_P1;SDS_P2;PMS_P1;PMS_P2;Temp;Humidity;BMP_temperature;BMP_pressure;BME280_temperature;BME280_humidity;BME280_pressure;Samples;Min_cycle;Max_cycle;Signal;HPM_P1;HPM_P2
2023/10/29 00:00:11;;;;;;;;;0.00;0.00;;;;;14.42;100.00;98746.03;4995734;28;46116;-75
2023/10/29 00:02:36;;;;;;;;;0.00;0.00;;;;;14.40;100.00;98742.72;4995675;28;45783;-77
2023/10/29 00:05:02;;;;;;;;;1.00;0.00;;;;;14.41;100.00;98729.75;4996345;28;45774;-77
2023/10/29 00:07:28;;;;;;;;;0.00;0.00;;;;;14.42;100.00;98734.16;4994735;28;45384;-75
2023/10/29 00:09:54;;;;;;;;;0.00;0.00;;;;;14.41;100.00;98727.81;4982686;28;45681;-77
2023/10/29 00:12:19;;;;;;;;;0.00;0.00;;;;;14.40;100.00;98717.06;4995759;28;45257;-75
2023/10/29 00:14:44;;;;;;;;;1.00;0.00;;;;;14.44;100.00;98723.66;5002439;28;45836;-76
2023/10/29 00:17:10;;;;;;;;;0.00;0.00;;;;;14.41;100.00;98715.97;4995355;28;45858;-76
2023/10/29 00:19:35;;;;;;;;;0.00;0.00;;;;;14.49;100.00;98709.88;4995445;28;45494;-71
2023/10/29 00:22:01;;;;;;;;;0.00;0.00;;;;;14.50;100.00;98705.16;4994938;28;45584;-70
2023/10/29 00:24:27;;;;;;;;;0.00;0.00;;;;;14.48;100.00;98700.75;4994748;28;45425;-70
2023/10/29 00:26:52;;;;;;;;;0.00;0.00;;;;;14.48;100.00;98689.72;4976962;28;46091;-71
2023/10/29 00:29:17;;;;;;;;;0.00;0.00;;;;;14.53;100.00;98708.16;4995155;28;46887;-75
2023/10/29 00:31:43;;;;;;;;;0.00;0.00;;;;;14.55;100.00;98705.97;4993616;28;45448;-76
2023/10/29 00:34:08;;;;;;;;;0.00;0.00;;;;;14.62;100.00;98730.50;4993462;28;45741;-77
2023/10/29 00:36:36;;;;;;;;;0.00;0.00;;;;;14.62;100.00;98689.91;4993625;28;45526;-71
2023/10/29 00:39:03;;;;;;;;;2.00;0.00;;;;;14.64;100.00;98695.16;4976604;28;47073;-71
2023/10/29 00:41:29;;;;;;;;;0.00;0.00;;;;;14.72;100.00;98702.03;4970310;28;45455;-77
2023/10/29 00:43:54;;;;;;;;;1.00;1.00;;;;;14.77;100.00;98672.44;4995320;28;45320;-78
2023/10/29 00:46:20;;;;;;;;;1.33;0.00;;;;;14.81;100.00;98686.50;4997796;28;45398;-71
2023/10/29 00:48:46;;;;;;;;;0.00;0.00;;;;;14.84;100.00;98680.41;4997184;28;46016;-72
2023/10/29 00:51:11;;;;;;;;;1.00;0.00;;;;;14.85;100.00;98682.06;4999304;28;45340;-77
2023/10/29 00:53:37;;;;;;;;;0.00;0.00;;;;;14.90;100.00;98682.00;4998636;28;45329;-72
2023/10/29 00:56:04;;;;;;;;;2.00;0.33;;;;;14.94;100.00;98682.25;4997464;28;45387;-76
2023/10/29 00:58:30;;;;;;;;;1.00;0.00;;;;;14.98;100.00;98695.19;4977410;28;47321;-72
2023/10/29 01:00:55;;;;;;;;;2.00;2.00;;;;;14.97;100.00;98676.13;4974446;28;45412;-78
2023/10/29 01:03:22;;;;;;;;;0.00;0.00;;;;;15.00;100.00;98694.91;4974113;28;45537;-76
2023/10/29 01:05:48;;;;;;;;;2.00;1.00;;;;;15.06;100.00;98684.63;4990443;28;45369;-76
2023/10/29 01:08:15;;;;;;;;;2.67;2.00;;;;;15.07;100.00;98689.03;4997745;28;45780;-76
2023/10/29 01:10:40;;;;;;;;;0.67;0.67;;;;;15.09;100.00;98708.88;4998308;28;45535;-71
2023/10/29 01:13:06;;;;;;;;;0.00;0.00;;;;;15.14;100.00;98715.19;4997086;28;45515;-70
2023/10/29 01:15:33;;;;;;;;;0.00;0.00;;;;;15.18;100.00;98715.47;4996975;28;45383;-71
2023/10/29 01:17:58;;;;;;;;;0.00;0.00;;;;;15.21;100.00;98712.13;4997036;28;46457;-69
2023/10/29 01:20:24;;;;;;;;;0.00;0.00;;;;;15.27;100.00;98727.53;4996925;28;45411;-69
2023/10/29 01:22:49;;;;;;;;;0.00;0.00;;;;;15.29;100.00;98728.06;4996363;28;45375;-70
2023/10/29 01:25:15;;;;;;;;;0.00;0.00;;;;;15.29;100.00;98719.75;4979332;28;46174;-71
2023/10/29 01:27:41;;;;;;;;;0.00;0.00;;;;;15.23;100.00;98701.59;4996698;28;45432;-76
2023/10/29 01:30:17;;;;;;;;;2.00;0.67;;;;;15.35;100.00;98718.59;4995457;28;45781;-75
2023/10/29 01:32:59;;;;;;;;;1.67;0.00;;;;;15.43;100.00;98735.66;4982119;28;45708;-76
2023/10/29 01:35:24;;;;;;;;;1.00;0.00;;;;;15.44;100.00;98742.84;4979363;28;46158;-71
2023/10/29 01:37:51;;;;;;;;;0.33;0.00;;;;;15.46;100.00;98737.84;4979890;28;45362;-76
2023/10/29 01:40:16;;;;;;;;;0.67;0.00;;;;;15.46;100.00;98759.94;4980071;28;45670;-76
2023/10/29 01:42:43;;;;;;;;;0.00;0.00;;;;;15.46;100.00;98758.00;4998135;28;45704;-77
2023/10/29 01:45:10;;;;;;;;;1.33;0.00;;;;;15.39;100.00;98740.97;4979649;28;45988;-77
2023/10/29 01:47:36;;;;;;;;;0.00;0.00;;;;;15.44;100.00;98762.19;4990818;28;45479;-76
2023/10/29 01:50:01;;;;;;;;;1.00;0.00;;;;;15.42;100.00;98750.59;4977056;28;45567;-77
2023/10/29 01:52:26;;;;;;;;;0.67;0.00;;;;;15.42;100.00;98762.47;4976382;28;45449;-77
2023/10/29 01:54:52;;;;;;;;;0.00;0.00;;;;;15.39;100.00;98765.81;4980015;28;45717;-70
2023/10/29 01:57:17;;;;;;;;;1.00;1.00;;;;;15.42;100.00;98769.91;4995530;28;46138;-71
2023/10/29 01:59:42;;;;;;;;;1.67;0.33;;;;;15.46;100.00;98779.28;4996065;28;45673;-71
2023/10/29 02:02:08;;;;;;;;;0.00;0.00;;;;;15.47;100.00;98776.22;4978209;28;45870;-77
2023/10/29 02:04:34;;;;;;;;;0.00;0.00;;;;;15.63;100.00;98785.22;4995877;28;45787;-76
2023/10/29 02:06:59;;;;;;;;;1.67;0.00;;;;;15.46;100.00;98771.81;4996521;28;45426;-76
2023/10/29 02:09:25;;;;;;;;;3.00;1.00;;;;;15.76;100.00;98782.88;4996615;28;45412;-75
2023/10/29 02:11:51;;;;;;;;;0.00;0.00;;;;;15.67;100.00;98786.28;4996063;28;45454;-77
2023/10/29 02:14:16;;;;;;;;;1.33;0.00;;;;;15.64;100.00;98780.50;4997228;28;45549;-77
2023/10/29 02:16:42;;;;;;;;;4.33;0.00;;;;;15.54;100.00;98770.38;4995453;28;45716;-76
2023/10/29 02:19:07;;;;;;;;;2.00;2.00;;;;;15.62;100.00;98796.56;4996302;28;45494;-77
2023/10/29 02:21:34;;;;;;;;;2.33;0.33;;;;;15.60;100.00;98796.00;4963693;28;45759;-76
2023/10/29 02:24:01;;;;;;;;;0.00;0.00;;;;;15.65;100.00;98807.84;4995937;28;45841;-76
2023/10/29 02:26:27;;;;;;;;;2.00;1.00;;;;;15.52;100.00;98801.06;4996956;28;45991;-77
2023/10/29 02:28:52;;;;;;;;;3.00;1.33;;;;;15.51;100.00;98815.16;4996045;28;45372;-76
2023/10/29 02:31:20;;;;;;;;;4.67;2.00;;;;;15.42;100.00;98823.25;4996698;28;45612;-76
2023/10/29 02:33:46;;;;;;;;;2.33;0.33;;;;;15.34;100.00;98818.31;4996174;28;45570;-76
2023/10/29 02:36:13;;;;;;;;;0.00;0.00;;;;;15.38;100.00;98821.34;4994324;28;46290;-77
2023/10/29 02:38:40;;;;;;;;;2.33;1.00;;;;;15.52;100.00;98845.28;4995629;28;45743;-75
2023/10/29 02:41:06;;;;;;;;;0.00;0.00;;;;;15.45;100.00;98849.44;4996233;28;45580;-76
2023/10/29 02:43:32;;;;;;;;;0.00;0.00;;;;;15.29;100.00;98852.34;4996761;28;45664;-76
2023/10/29 02:45:57;;;;;;;;;0.33;0.33;;;;;15.23;100.00;98852.66;4996094;28;45954;-76
2023/10/29 02:48:24;;;;;;;;;1.67;1.00;;;;;15.11;100.00;98845.53;4989941;28;45661;-76
2023/10/29 02:50:50;;;;;;;;;0.67;0.67;;;;;15.14;100.00;98857.97;4977279;28;45724;-77
2023/10/29 02:53:16;;;;;;;;;2.00;0.33;;;;;15.10;100.00;98862.41;4983743;28;45549;-76
2023/10/29 02:55:41;;;;;;;;;2.00;1.00;;;;;15.09;100.00;98869.03;4978477;28;47020;-76
2023/10/29 02:58:06;;;;;;;;;3.00;0.00;;;;;15.19;100.00;98871.72;4995999;28;45499;-76
2023/10/29 03:00:32;;;;;;;;;4.33;2.00;;;;;15.02;100.00;98868.53;4995392;28;45427;-77
2023/10/29 03:02:57;;;;;;;;;2.67;0.67;;;;;15.03;100.00;98871.00;4995255;28;45447;-77
2023/10/29 03:05:23;;;;;;;;;0.67;0.67;;;;;15.15;100.00;98868.72;4978287;28;46906;-76
2023/10/29 03:07:49;;;;;;;;;3.33;1.00;;;;;15.20;100.00;98862.34;4977469;28;45639;-76
2023/10/29 03:10:14;;;;;;;;;0.67;0.67;;;;;15.23;100.00;98870.06;4995445;28;45384;-75
2023/10/29 03:12:40;;;;;;;;;2.00;0.00;;;;;15.22;100.00;98864.81;4988183;28;46168;-76
2023/10/29 03:15:06;;;;;;;;;1.00;0.00;;;;;15.19;100.00;98871.72;4988164;28;45444;-75
2023/10/29 03:17:31;;;;;;;;;1.67;0.00;;;;;15.15;100.00;98870.66;4974727;28;45959;-76
2023/10/29 03:19:57;;;;;;;;;3.00;1.00;;;;;15.11;100.00;98873.16;4988724;28;45340;-77
2023/10/29 03:22:22;;;;;;;;;1.33;0.00;;;;;14.98;100.00;98860.81;4993250;28;45484;-76
2023/10/29 03:24:47;;;;;;;;;0.00;0.00;;;;;15.02;100.00;98863.00;4979740;28;45367;-77
2023/10/29 03:27:13;;;;;;;;;1.00;0.33;;;;;15.00;100.00;98871.59;4979025;28;45586;-76
2023/10/29 03:29:39;;;;;;;;;1.00;0.00;;;;;14.94;100.00;98862.50;4988078;28;45509;-76
2023/10/29 03:32:04;;;;;;;;;1.00;0.00;;;;;14.94;100.00;98865.25;4991273;28;45462;-76
2023/10/29 03:34:31;;;;;;;;;0.00;0.00;;;;;14.89;100.00;98878.25;4970236;28;47829;-75
2023/10/29 03:36:56;;;;;;;;;0.00;0.00;;;;;14.83;100.00;98891.25;4990665;28;45534;-71
2023/10/29 03:39:22;;;;;;;;;2.00;0.67;;;;;14.82;100.00;98893.19;4986323;28;45509;-71
2023/10/29 03:41:47;;;;;;;;;2.67;1.00;;;;;14.77;100.00;98878.56;4989586;28;45616;-71
2023/10/29 03:44:13;;;;;;;;;2.33;1.33;;;;;14.73;100.00;98886.59;4986289;28;46628;-76
2023/10/29 03:46:39;;;;;;;;;3.67;1.00;;;;;14.52;100.00;98866.53;4990446;28;45337;-77
2023/10/29 03:49:05;;;;;;;;;4.00;1.00;;;;;14.68;100.00;98902.34;4990256;28;45744;-76
2023/10/29 03:51:30;;;;;;;;;2.00;2.00;;;;;14.69;100.00;98904.00;4995413;28;45578;-76
2023/10/29 03:53:55;;;;;;;;;0.33;0.33;;;;;14.67;100.00;98900.69;4995908;28;46677;-76
2023/10/29 03:56:21;;;;;;;;;1.00;1.00;;;;;14.64;100.00;98891.03;4993583;28;45391;-76
2023/10/29 03:58:46;;;;;;;;;2.67;1.00;;;;;14.68;100.00;98896.84;4994590;28;45497;-76
2023/10/29 04:01:18;;;;;;;;;2.00;0.00;;;;;14.49;100.00;98889.16;4988662;28;45415;-76
2023/10/29 04:03:43;;;;;;;;;4.33;1.00;;;;;14.64;100.00;98907.59;4982731;28;46334;-70
2023/10/29 04:06:11;;;;;;;;;1.00;0.33;;;;;14.60;100.00;98900.97;4993002;28;45639;-69
2023/10/29 04:08:37;;;;;;;;;1.00;0.00;;;;;14.53;100.00;98901.25;4992592;28;45720;-71
2023/10/29 04:11:03;;;;;;;;;4.33;1.00;;;;;14.60;100.00;98904.53;4994145;28;45279;-70
2023/10/29 04:13:28;;;;;;;;;0.67;0.00;;;;;14.59;100.00;98913.09;4992903;28;45646;-77
2023/10/29 04:15:54;;;;;;;;;6.00;1.00;;;;;14.46;100.00;98900.72;4995006;28;45471;-77
2023/10/29 04:18:21;;;;;;;;;2.67;1.00;;;;;14.54;100.00;98910.38;4978197;28;45828;-76
2023/10/29 04:20:47;;;;;;;;;0.33;0.00;;;;;14.45;100.00;98915.63;4997632;28;45415;-76
2023/10/29 04:23:12;;;;;;;;;2.00;0.00;;;;;14.23;100.00;98910.44;4990646;28;46134;-76
2023/10/29 04:25:38;;;;;;;;;2.33;0.00;;;;;14.34;100.00;98920.34;4993986;28;45388;-76
2023/10/29 04:28:04;;;;;;;;;1.00;1.00;;;;;14.13;100.00;98919.53;4998311;28;45474;-76
2023/10/29 04:30:29;;;;;;;;;1.67;1.67;;;;;14.22;100.00;98934.44;4998322;28;45563;-76
2023/10/29 04:32:54;;;;;;;;;4.00;1.00;;;;;14.25;100.00;98944.91;4998763;28;45418;-76
2023/10/29 04:35:20;;;;;;;;;5.00;1.00;;;;;14.20;100.00;98942.13;4993394;28;45348;-77
2023/10/29 04:37:45;;;;;;;;;2.67;1.33;;;;;14.21;100.00;98938.28;4981269;28;45365;-77
2023/10/29 04:40:11;;;;;;;;;2.00;0.00;;;;;14.19;100.00;98934.13;4998027;28;45446;-75
2023/10/29 04:42:36;;;;;;;;;4.00;1.00;;;;;14.17;100.00;98930.84;4997733;28;45364;-76
2023/10/29 04:45:03;;;;;;;;;2.00;1.00;;;;;14.14;100.00;98932.22;4998095;28;45706;-77
2023/10/29 04:47:28;;;;;;;;;9.33;2.00;;;;;14.11;100.00;98928.06;4995876;28;45426;-76
2023/10/29 04:49:54;;;;;;;;;2.33;1.00;;;;;14.04;100.00;98935.81;4978050;28;46010;-77
2023/10/29 04:52:19;;;;;;;;;0.00;0.00;;;;;13.98;100.00;98938.84;4995056;28;45485;-78
2023/10/29 04:54:44;;;;;;;;;2.33;1.00;;;;;13.95;100.00;98927.28;4998859;28;45554;-78
2023/10/29 04:57:10;;;;;;;;;1.00;0.00;;;;;13.93;100.00;98923.13;4999433;28;45701;-77
2023/10/29 04:59:36;;;;;;;;;3.00;1.00;;;;;13.89;100.00;98928.38;4996651;28;45593;-76
2023/10/29 05:02:03;;;;;;;;;2.67;1.00;;;;;13.88;100.00;98931.41;4979324;28;47086;-77
2023/10/29 05:04:29;;;;;;;;;5.00;2.00;;;;;13.79;100.00;98922.88;4996730;28;45454;-77
2023/10/29 05:06:54;;;;;;;;;2.67;1.33;;;;;13.74;100.00;98928.38;4995181;28;45726;-77
2023/10/29 05:09:19;;;;;;;;;0.67;0.00;;;;;13.64;100.00;98928.34;4998284;28;45507;-76
2023/10/29 05:11:45;;;;;;;;;2.33;1.00;;;;;13.75;100.00;98910.75;4998403;28;46598;-77
2023/10/29 05:14:10;;;;;;;;;4.67;0.33;;;;;13.72;100.00;98917.63;4994170;28;45331;-77
2023/10/29 05:16:36;;;;;;;;;3.33;0.67;;;;;13.73;100.00;98923.97;4997882;28;45630;-77
2023/10/29 05:19:03;;;;;;;;;1.33;0.67;;;;;13.51;100.00;98925.03;4998789;28;45527;-77
2023/10/29 05:21:28;;;;;;;;;4.67;1.33;;;;;13.45;100.00;98930.81;4997516;28;46793;-78
2023/10/29 05:23:54;;;;;;;;;3.00;1.67;;;;;13.39;100.00;98933.56;4998868;28;45579;-76
2023/10/29 05:26:20;;;;;;;;;2.67;2.00;;;;;13.37;100.00;98940.44;4998045;28;45482;-71
2023/10/29 05:28:45;;;;;;;;;1.33;1.33;;;;;13.36;100.00;98923.09;4979328;28;45791;-71
2023/10/29 05:31:11;;;;;;;;;3.33;1.33;;;;;13.33;100.00;98922.78;4995505;28;45670;-77
2023/10/29 05:33:37;;;;;;;;;8.67;2.00;;;;;13.30;100.00;98912.31;4998766;28;45474;-77
2023/10/29 05:36:04;;;;;;;;;1.67;1.00;;;;;13.27;100.00;98919.19;4981016;28;45461;-76
2023/10/29 05:38:30;;;;;;;;;1.67;1.67;;;;;13.17;100.00;98909.00;4981298;28;46601;-75
2023/10/29 05:40:55;;;;;;;;;3.67;2.00;;;;;13.12;100.00;98913.66;4990387;28;45442;-77
2023/10/29 05:43:21;;;;;;;;;1.67;1.00;;;;;13.23;100.00;98924.41;4996648;28;45826;-78
2023/10/29 05:45:46;;;;;;;;;4.00;0.67;;;;;13.24;100.00;98942.56;4998596;28;45382;-77
2023/10/29 05:48:12;;;;;;;;;5.33;2.67;;;;;13.22;100.00;98939.28;4998980;28;45329;-76
2023/10/29 05:50:38;;;;;;;;;0.67;0.67;;;;;13.21;100.00;98939.53;4998817;28;47485;-75
2023/10/29 05:53:04;;;;;;;;;8.67;1.67;;;;;13.27;100.00;98954.16;4997743;28;45325;-76
2023/10/29 05:55:30;;;;;;;;;4.00;2.00;;;;;13.20;100.00;98958.00;4998769;28;45403;-76
2023/10/29 05:57:55;;;;;;;;;1.67;0.67;;;;;13.19;100.00;98953.59;4980797;28;46006;-77
2023/10/29 06:00:21;;;;;;;;;0.00;0.00;;;;;13.20;100.00;98962.66;4996055;28;47478;-77
2023/10/29 06:02:46;;;;;;;;;1.67;0.67;;;;;13.19;100.00;98959.09;4995451;28;45528;-77
2023/10/29 06:05:12;;;;;;;;;2.67;1.67;;;;;13.20;100.00;98944.22;4997832;28;45410;-76
2023/10/29 06:07:42;;;;;;;;;3.67;1.00;;;;;13.21;100.00;98937.59;4997903;28;45561;-77
2023/10/29 06:10:08;;;;;;;;;4.00;1.33;;;;;13.22;100.00;98941.22;4998061;28;45638;-78
2023/10/29 06:12:34;;;;;;;;;1.00;1.00;;;;;13.23;100.00;98949.19;4997383;28;45710;-78
2023/10/29 06:14:59;;;;;;;;;2.33;0.00;;;;;13.22;100.00;98950.28;4997212;28;45765;-76
2023/10/29 06:17:24;;;;;;;;;5.33;2.33;;;;;13.22;100.00;98958.53;4997293;28;45762;-76
2023/10/29 06:19:50;;;;;;;;;1.33;1.33;;;;;13.22;100.00;98949.47;4997351;28;46237;-79
2023/10/29 06:22:15;;;;;;;;;8.67;3.00;;;;;13.23;100.00;98951.09;4980447;28;45388;-78
2023/10/29 06:24:41;;;;;;;;;4.00;1.67;;;;;13.45;100.00;98964.69;4974248;28;45591;-77
2023/10/29 06:27:06;;;;;;;;;1.00;0.67;;;;;13.42;100.00;98959.72;4995708;28;45423;-77
2023/10/29 06:29:31;;;;;;;;;2.67;0.67;;;;;13.45;100.00;98967.44;4993733;28;46572;-77
2023/10/29 06:31:57;;;;;;;;;3.00;1.33;;;;;13.42;100.00;98965.25;4994984;28;45496;-79
2023/10/29 06:34:22;;;;;;;;;5.33;1.67;;;;;13.46;100.00;98966.34;4997117;28;45767;-76
2023/10/29 06:36:48;;;;;;;;;2.00;1.00;;;;;13.50;100.00;98961.97;4995572;28;45892;-74
2023/10/29 06:39:13;;;;;;;;;2.67;1.67;;;;;13.45;100.00;98972.94;4970351;28;46572;-74
2023/10/29 06:41:38;;;;;;;;;1.00;1.00;;;;;13.29;100.00;98960.22;4987596;28;45430;-74
2023/10/29 06:44:04;;;;;;;;;2.67;0.67;;;;;13.34;100.00;98976.78;4993272;28;45747;-73
2023/10/29 06:46:31;;;;;;;;;2.00;2.00;;;;;13.51;100.00;98979.31;4978570;28;45755;-75
2023/10/29 06:48:57;;;;;;;;;1.00;0.67;;;;;13.44;100.00;98976.78;4988564;28;47143;-77
2023/10/29 06:51:23;;;;;;;;;0.67;0.67;;;;;13.41;100.00;98978.19;4991004;28;45486;-76
2023/10/29 06:53:48;;;;;;;;;4.67;1.67;;;;;13.40;100.00;98995.78;5001128;28;45592;-77
2023/10/29 06:56:13;;;;;;;;;3.00;1.67;;;;;13.36;100.00;98994.69;5005363;28;45522;-77
2023/10/29 06:58:39;;;;;;;;;2.00;1.33;;;;;13.59;100.00;99001.63;4977546;28;48535;-78
2023/10/29 07:01:06;;;;;;;;;5.67;0.00;;;;;13.67;100.00;98993.94;4994389;28;45815;-76
2023/10/29 07:03:32;;;;;;;;;1.33;0.33;;;;;13.71;100.00;98989.53;4988351;28;45769;-79
2023/10/29 07:06:06;;;;;;;;;8.00;1.00;;;;;13.73;100.00;98992.84;4991305;28;45951;-78
2023/10/29 07:08:32;;;;;;;;;5.33;0.67;;;;;13.65;100.00;98983.16;4973219;28;46092;-76
2023/10/29 07:10:57;;;;;;;;;1.00;1.00;;;;;13.77;100.00;99010.47;4996419;28;45426;-76
2023/10/29 07:13:23;;;;;;;;;0.67;0.00;;;;;13.85;100.00;99017.41;4977826;28;46310;-78
2023/10/29 07:15:48;;;;;;;;;3.67;2.67;;;;;13.91;100.00;99011.59;4984063;28;45861;-77
2023/10/29 07:18:13;;;;;;;;;8.00;1.00;;;;;13.99;100.00;98993.69;4990950;28;46397;-77
2023/10/29 07:20:39;;;;;;;;;0.00;0.00;;;;;14.07;100.00;98997.81;4971592;28;45756;-78
2023/10/29 07:23:04;;;;;;;;;15.67;15.00;;;;;14.22;100.00;98994.25;4996916;28;45935;-76
2023/10/29 07:25:30;;;;;;;;;4.00;3.00;;;;;14.22;100.00;98995.09;5003483;28;45892;-77
2023/10/29 07:27:55;;;;;;;;;5.33;4.00;;;;;14.23;100.00;98995.91;4982541;28;47164;-79
2023/10/29 07:30:21;;;;;;;;;3.67;3.67;;;;;14.27;100.00;98994.25;4992289;28;45711;-76
2023/10/29 07:32:47;;;;;;;;;3.67;3.33;;;;;14.36;100.00;98994.53;4987508;28;45647;-76
2023/10/29 07:35:13;;;;;;;;;8.67;3.00;;;;;14.40;100.00;98981.81;5000156;28;45704;-80
2023/10/29 07:38:21;;;;;;;;;17.33;10.67;;;;;14.51;100.00;98975.19;4998897;28;46238;-79
2023/10/29 07:40:48;;;;;;;;;8.67;8.00;;;;;14.58;100.00;98970.22;4985589;28;45450;-81
2023/10/29 07:43:36;;;;;;;;;8.00;7.67;;;;;14.61;100.00;98979.88;4997244;28;45939;-78
2023/10/29 07:46:04;;;;;;;;;1.33;1.33;;;;;14.62;100.00;98976.84;4986737;28;45723;-81
2023/10/29 07:48:30;;;;;;;;;5.33;3.33;;;;;14.66;100.00;98971.59;4977299;28;46896;-79
2023/10/29 07:51:04;;;;;;;;;3.33;3.33;;;;;14.72;100.00;98958.63;4994011;28;45647;-78
2023/10/29 07:53:32;;;;;;;;;6.00;3.67;;;;;14.74;100.00;98957.22;4998808;28;45511;-78
2023/10/29 07:56:08;;;;;;;;;2.00;2.00;;;;;14.86;100.00;98976.22;4980885;28;45670;-78
2023/10/29 07:58:34;;;;;;;;;2.33;2.00;;;;;15.10;100.00;98972.84;4994507;28;46761;-78
2023/10/29 08:01:00;;;;;;;;;2.33;2.33;;;;;15.13;100.00;98973.09;4996902;28;45652;-76
2023/10/29 08:03:27;;;;;;;;;2.33;0.67;;;;;14.99;100.00;98964.59;4979820;28;45453;-76
2023/10/29 08:05:53;;;;;;;;;1.33;1.33;;;;;15.01;100.00;98961.53;4981915;28;47306;-77
2023/10/29 08:08:19;;;;;;;;;2.33;2.00;;;;;15.02;100.00;98962.41;4996026;28;46377;-77
2023/10/29 08:10:47;;;;;;;;;2.00;2.00;;;;;15.06;100.00;98985.53;4991879;28;45633;-77
2023/10/29 08:13:12;;;;;;;;;4.00;2.00;;;;;15.00;100.00;98988.34;4982218;28;45796;-76
2023/10/29 08:15:38;;;;;;;;;1.33;1.00;;;;;15.05;100.00;98994.97;4973047;28;45849;-77
2023/10/29 08:18:04;;;;;;;;;4.00;1.00;;;;;14.94;100.00;98958.25;4976999;28;47824;-76
2023/10/29 08:20:30;;;;;;;;;2.00;1.00;;;;;15.17;100.00;98987.16;4975893;28;45504;-75
2023/10/29 08:22:58;;;;;;;;;2.00;1.00;;;;;15.17;100.00;98978.88;4986173;28;45332;-78
2023/10/29 08:25:25;;;;;;;;;1.00;1.00;;;;;15.30;100.00;98992.09;4992022;28;45100;-77
2023/10/29 08:27:53;;;;;;;;;1.00;1.00;;;;;15.31;100.00;98993.75;4995423;28;45706;-75
2023/10/29 08:30:19;;;;;;;;;3.00;1.00;;;;;15.33;100.00;98983.22;4985697;28;45812;-78
2023/10/29 08:32:47;;;;;;;;;2.67;1.67;;;;;15.42;100.00;98988.16;4995580;28;45425;-76
2023/10/29 08:35:12;;;;;;;;;2.33;1.00;;;;;15.40;100.00;98982.91;4991176;28;45394;-78
2023/10/29 08:37:37;;;;;;;;;1.67;1.00;;;;;15.43;100.00;98987.03;4996135;28;45756;-78
2023/10/29 08:40:03;;;;;;;;;2.67;1.67;;;;;15.31;100.00;98977.19;4995329;28;45373;-79
2023/10/29 08:42:30;;;;;;;;;1.00;1.00;;;;;15.43;100.00;98982.34;4973052;28;45918;-78
2023/10/29 08:44:56;;;;;;;;;3.67;1.00;;;;;15.54;100.00;99021.81;4989533;28;45751;-78
2023/10/29 08:47:22;;;;;;;;;2.67;2.00;;;;;15.46;100.00;99008.56;4989042;28;46827;-79
2023/10/29 08:49:48;;;;;;;;;2.67;1.00;;;;;15.42;100.00;99022.13;4977909;28;45797;-78
2023/10/29 08:52:14;;;;;;;;;1.00;1.00;;;;;15.36;100.00;98992.91;4990950;28;47130;-77
2023/10/29 08:54:40;;;;;;;;;5.00;1.00;;;;;15.33;100.00;99010.03;4994594;28;45475;-77
2023/10/29 08:57:06;;;;;;;;;4.33;2.00;;;;;15.16;100.00;98969.78;4985733;28;46039;-71
2023/10/29 08:59:31;;;;;;;;;4.00;1.33;;;;;15.39;100.00;98988.72;4984269;28;45393;-74
2023/10/29 09:01:57;;;;;;;;;1.33;1.33;;;;;15.26;100.00;98981.88;4987062;28;46412;-75
2023/10/29 09:04:22;;;;;;;;;0.00;0.00;;;;;15.18;100.00;98970.31;4996484;28;45799;-75
2023/10/29 09:06:48;;;;;;;;;2.67;1.00;;;;;15.28;100.00;98955.63;4993390;28;47030;-78
2023/10/29 09:09:13;;;;;;;;;0.33;0.33;;;;;15.37;100.00;98961.38;5001126;28;45539;-76
2023/10/29 09:11:39;;;;;;;;;2.33;1.33;;;;;15.31;100.00;98954.22;4998582;28;46010;-76
2023/10/29 09:14:07;;;;;;;;;1.67;1.00;;;;;15.39;100.00;98961.09;4998348;28;45829;-72
2023/10/29 09:16:33;;;;;;;;;0.00;0.00;;;;;15.35;100.00;98947.84;4978028;28;46135;-73
2023/10/29 09:18:59;;;;;;;;;0.33;0.33;;;;;15.47;100.00;98927.34;4986784;28;45534;-71
2023/10/29 09:21:24;;;;;;;;;1.00;1.00;;;;;15.65;100.00;98914.78;4996469;28;45340;-71
2023/10/29 09:23:52;;;;;;;;;1.00;0.00;;;;;15.81;100.00;98918.31;4990762;28;45600;-78
2023/10/29 09:26:17;;;;;;;;;0.00;0.00;;;;;15.99;100.00;98906.53;4990230;28;45347;-70
2023/10/29 09:28:43;;;;;;;;;1.67;0.67;;;;;15.91;100.00;98923.72;4989369;28;45649;-73
2023/10/29 09:31:20;;;;;;;;;0.00;0.00;;;;;15.75;100.00;98936.84;4993481;28;45427;-73
2023/10/29 09:33:45;;;;;;;;;0.00;0.00;;;;;15.64;100.00;98919.50;4997204;28;45455;-77
2023/10/29 09:36:13;;;;;;;;;0.00;0.00;;;;;15.54;100.00;98892.75;4973353;28;47157;-77
2023/10/29 09:38:38;;;;;;;;;0.00;0.00;;;;;15.49;100.00;98925.13;4982292;28;45404;-78
2023/10/29 09:41:04;;;;;;;;;0.00;0.00;;;;;15.59;100.00;98944.41;4982713;28;45407;-73
2023/10/29 09:43:37;;;;;;;;;0.00;0.00;;;;;15.81;100.00;98965.31;4987701;28;45819;-72
2023/10/29 09:46:05;;;;;;;;;4.33;1.00;;;;;15.83;100.00;98957.53;4983164;28;46548;-77
2023/10/29 09:48:33;;;;;;;;;1.00;0.00;;;;;15.77;100.00;98944.84;4984257;28;45732;-77
2023/10/29 09:51:00;;;;;;;;;0.00;0.00;;;;;15.74;100.00;98931.59;4979577;28;45565;-71
2023/10/29 09:53:28;;;;;;;;;3.00;0.33;;;;;15.76;100.00;98951.47;4996567;28;45800;-80
2023/10/29 09:55:54;;;;;;;;;1.00;1.00;;;;;15.64;100.00;98936.09;4995893;28;45454;-70
2023/10/29 09:58:22;;;;;;;;;4.00;1.33;;;;;15.67;100.00;98956.78;4997488;28;45366;-72
2023/10/29 10:00:49;;;;;;;;;1.67;1.00;;;;;15.64;100.00;98941.63;4979244;28;45349;-78
2023/10/29 10:03:15;;;;;;;;;3.00;3.00;;;;;15.87;100.00;98940.06;4996928;28;45582;-72
2023/10/29 10:05:42;;;;;;;;;1.00;0.33;;;;;15.92;100.00;98930.09;4977611;28;46595;-73
2023/10/29 10:08:09;;;;;;;;;0.00;0.00;;;;;16.08;100.00;98928.00;4994919;28;45821;-72
2023/10/29 10:10:42;;;;;;;;;1.00;1.00;;;;;16.28;100.00;98946.38;4993594;28;45503;-78
2023/10/29 10:13:09;;;;;;;;;0.00;0.00;;;;;16.39;100.00;98946.00;4996200;28;45466;-76
2023/10/29 10:15:35;;;;;;;;;2.00;0.00;;;;;16.57;100.00;98938.88;4992418;28;47103;-77
2023/10/29 10:18:06;;;;;;;;;0.00;0.00;;;;;16.67;100.00;98951.78;4995330;28;45469;-77
2023/10/29 10:20:35;;;;;;;;;2.33;1.00;;;;;16.90;100.00;98943.78;4994327;28;45426;-74
2023/10/29 10:23:07;;;;;;;;;0.00;0.00;;;;;17.10;100.00;98946.31;4994774;28;45467;-72
2023/10/29 10:25:58;;;;;;;;;2.67;0.00;;;;;17.28;100.00;98946.66;4978394;28;48038;-72
2023/10/29 10:28:24;;;;;;;;;1.00;0.00;;;;;17.52;100.00;98915.28;4991689;28;45712;-72
2023/10/29 10:30:50;;;;;;;;;0.00;0.00;;;;;17.57;100.00;98920.72;4992983;28;46328;-71
2023/10/29 10:33:18;;;;;;;;;2.00;1.00;;;;;17.52;100.00;98915.28;4982939;28;45642;-72
2023/10/29 10:35:46;;;;;;;;;1.00;0.00;;;;;17.57;100.00;98921.56;4987206;28;45461;-73
2023/10/29 10:38:19;;;;;;;;;0.00;0.00;;;;;17.55;100.00;98911.91;4974374;28;45595;-73
2023/10/29 10:40:47;;;;;;;;;0.00;0.00;;;;;17.63;100.00;98914.00;4969746;28;45472;-71
2023/10/29 10:43:18;;;;;;;;;0.00;0.00;;;;;17.61;100.00;98896.84;4990383;28;45477;-71
2023/10/29 10:45:49;;;;;;;;;1.75;0.00;;;;;17.99;100.00;98913.44;4989486;28;45823;-71
2023/10/29 10:48:16;;;;;;;;;1.33;0.33;;;;;18.15;100.00;98925.91;4966890;28;46714;-71
2023/10/29 10:50:43;;;;;;;;;1.00;1.00;;;;;18.49;100.00;98919.22;4993007;28;45465;-72
2023/10/29 10:53:09;;;;;;;;;0.00;0.00;;;;;18.88;100.00;98912.34;4993499;28;45518;-72
2023/10/29 10:55:35;;;;;;;;;0.33;0.33;;;;;19.12;100.00;98902.97;4989826;28;46262;-71
2023/10/29 10:58:04;;;;;;;;;2.00;1.00;;;;;19.32;100.00;98917.56;4985064;28;45641;-71
2023/10/29 11:00:33;;;;;;;;;3.67;2.00;;;;;19.30;100.00;98917.06;4991611;28;45690;-72
2023/10/29 11:02:59;;;;;;;;;0.33;0.00;;;;;19.21;100.00;98925.31;4992969;28;45423;-72
2023/10/29 11:05:30;;;;;;;;;3.00;2.00;;;;;19.30;100.00;98922.63;4991236;28;46637;-71
2023/10/29 11:07:58;;;;;;;;;2.25;0.75;;;;;19.38;100.00;98925.44;4993563;28;45532;-71
2023/10/29 11:10:25;;;;;;;;;0.25;0.25;;;;;19.49;100.00;98928.84;4990741;28;45539;-72
2023/10/29 11:12:54;;;;;;;;;2.00;2.00;;;;;19.47;100.00;98931.09;4982371;28;46248;-71
2023/10/29 11:15:21;;;;;;;;;0.00;0.00;;;;;19.35;100.00;98926.06;4973465;28;47378;-71
2023/10/29 11:18:02;;;;;;;;;2.00;0.25;;;;;19.24;100.00;98935.78;4985952;28;46193;-70
2023/10/29 11:23:39;;;;;;;;;1.50;0.00;;;;;19.22;100.00;98943.59;4980034;28;46172;-72